Time;durP1;ratioP1;P1;durP2;ratioP2;P2;SDS_P1;SDS_P2;PMS_P1;PMS_P2;Temp;Humidity;BMP_temperature;BMP_pressure;BME280_temperature;BME280_humidity;BME280_pressure;Samples;Min_cycle;Max_cycle;Signal;HPM_P1;HPM_P2
2023/05/17 00:01:47;;;;;;;4.15;1.95;;;8.40;99.90;;;7.64;100.00;102259.25;4121455;28;20022;-73
2023/05/17 00:03:48;;;;;;;8.52;2.30;;;8.30;99.90;;;7.61;100.00;102254.22;4121605;28;20031;-73
2023/05/17 00:05:49;;;;;;;5.47;1.83;;;8.30;99.90;;;7.60;100.00;102260.38;4121436;28;20043;-73
2023/05/17 00:07:50;;;;;;;5.78;2.63;;;8.30;99.90;;;7.60;100.00;102260.38;4121134;28;20030;-73
2023/05/17 00:09:51;;;;;;;6.95;2.38;;;8.30;99.90;;;7.57;100.00;102260.59;4121210;28;20031;-73
2023/05/17 00:18:24;;;;;;;4.85;2.40;;;8.20;99.90;;;7.51;100.00;102260.13;4121292;28;20085;-73
2023/05/17 00:20:25;;;;;;;9.60;2.50;;;8.20;99.90;;;7.49;100.00;102257.63;4121347;28;20439;-73
2023/05/17 00:22:26;;;;;;;8.07;3.13;;;8.20;99.90;;;7.51;100.00;102250.47;4136041;28;20026;-72
2023/05/17 00:24:27;;;;;;;8.57;2.72;;;8.20;99.90;;;7.52;100.00;102246.06;4121248;28;20546;-73
2023/05/17 00:26:28;;;;;;;9.70;2.75;;;8.20;99.90;;;7.54;100.00;102254.69;4135959;28;20018;-73
2023/05/17 00:28:29;;;;;;;8.93;2.92;;;8.20;99.90;;;7.54;100.00;102255.53;4121080;28;20406;-73
2023/05/17 00:30:30;;;;;;;5.53;2.75;;;8.20;99.90;;;7.55;100.00;102257.22;4135834;28;20502;-73
2023/05/17 00:32:31;;;;;;;9.10;3.03;;;8.20;99.90;;;7.54;100.00;102250.28;4121361;28;20042;-72
2023/05/17 00:34:32;;;;;;;9.82;3.53;;;8.20;99.90;;;7.51;100.00;102245.22;4136040;28;20037;-73
2023/05/17 00:36:32;;;;;;;5.53;2.40;;;8.20;99.90;;;7.54;100.00;102250.28;4119905;28;20062;-73
2023/05/17 00:38:33;;;;;;;7.35;2.80;;;8.20;99.90;;;7.53;100.00;102247.75;4120850;28;20437;-73
2023/05/17 00:40:34;;;;;;;6.30;3.00;;;8.20;99.90;;;7.51;100.00;102252.25;4120915;28;20019;-73
2023/05/17 00:42:35;;;;;;;7.13;2.50;;;8.20;99.90;;;7.46;100.00;102247.31;4135684;28;20022;-73
2023/05/17 00:44:36;;;;;;;8.77;2.92;;;8.10;99.90;;;7.51;100.00;102254.88;4120860;28;20030;-73
2023/05/17 00:46:37;;;;;;;6.75;3.15;;;8.10;99.90;;;7.51;100.00;102257.50;4121086;28;20030;-73
2023/05/17 00:48:37;;;;;;;11.88;2.95;;;8.10;99.90;;;7.50;100.00;102261.91;4120942;28;20023;-73
2023/05/17 00:50:38;;;;;;;9.77;3.03;;;8.10;99.90;;;7.47;100.00;102254.25;4120905;28;20101;-73
2023/05/17 00:52:39;;;;;;;9.80;3.35;;;8.10;99.90;;;7.45;100.00;102263.16;4136035;28;20038;-73
2023/05/17 00:54:41;;;;;;;9.32;3.40;;;8.10;99.90;;;7.39;100.00;102259.16;4121017;28;20509;-73
2023/05/17 00:56:42;;;;;;;9.68;2.92;;;8.10;99.90;;;7.39;100.00;102256.53;4135362;28;20030;-73
2023/05/17 00:58:43;;;;;;;11.32;3.83;;;8.00;99.90;;;7.32;100.00;102249.97;4135385;28;20117;-73
2023/05/17 01:00:44;;;;;;;8.15;3.15;;;8.00;99.90;;;7.28;100.00;102252.91;4135827;28;20057;-73
2023/05/17 01:02:47;;;;;;;5.43;2.50;;;8.00;99.90;;;7.22;100.00;102248.91;4135580;28;20146;-73
2023/05/17 01:04:48;;;;;;;6.20;2.30;;;7.90;99.90;;;7.19;100.00;102256.97;4135284;28;20069;-73
2023/05/17 01:06:49;;;;;;;7.22;2.53;;;7.90;99.90;;;7.16;100.00;102258.00;4106425;28;20149;-73
2023/05/17 01:08:50;;;;;;;8.27;2.88;;;7.80;99.90;;;7.10;100.00;102252.28;4120584;28;20509;-73
2023/05/17 01:11:16;;;;;;;9.52;3.10;;;7.80;99.90;;;7.08;100.00;102252.38;4120629;28;20480;-73
2023/05/17 01:13:36;;;;;;;4.57;2.28;;;7.70;99.90;;;7.03;100.00;102253.59;4119077;28;20466;-73
2023/05/17 01:16:01;;;;;;;7.65;3.63;;;7.70;99.90;;;6.98;100.00;102255.69;4120498;28;20422;-72
2023/05/17 01:18:15;;;;;;;9.90;3.07;;;7.70;99.90;;;6.93;100.00;102257.75;4134845;28;20057;-72
2023/05/17 01:20:18;;;;;;;7.22;2.80;;;7.60;99.90;;;6.88;100.00;102255.41;4120500;28;20031;-73
2023/05/17 01:22:50;;;;;;;5.60;2.83;;;7.50;99.90;;;6.86;100.00;102253.81;4120421;28;20027;-73
2023/05/17 01:25:23;;;;;;;6.88;3.42;;;7.50;99.90;;;6.82;100.00;102254.94;4120425;28;20038;-73
2023/05/17 01:27:26;;;;;;;4.55;2.80;;;7.50;99.90;;;6.77;100.00;102251.78;4120144;28;20030;-73
2023/05/17 01:29:28;;;;;;;8.57;3.22;;;7.50;99.90;;;6.77;100.00;102251.78;4119266;28;20099;-72
2023/05/17 01:31:30;;;;;;;11.32;2.85;;;7.40;99.90;;;6.67;100.00;102247.09;4135113;28;20032;-73
2023/05/17 01:33:32;;;;;;;10.05;3.70;;;7.40;99.90;;;6.69;100.00;102249.59;4119012;28;20470;-73
2023/05/17 01:35:33;;;;;;;6.43;2.78;;;7.40;99.90;;;6.67;100.00;102254.09;4134749;28;20030;-73
2023/05/17 01:37:34;;;;;;;8.52;3.42;;;7.40;99.90;;;6.67;100.00;102254.97;4135187;28;20080;-73
2023/05/17 01:39:35;;;;;;;7.88;3.33;;;7.40;99.90;;;6.64;100.00;102246.44;4120220;28;20051;-73
2023/05/17 01:41:41;;;;;;;8.85;2.75;;;7.30;99.90;;;6.63;100.00;102239.53;4119771;28;20030;-73
2023/05/17 01:44:21;;;;;;;9.90;3.75;;;7.30;99.90;;;6.59;100.00;102238.88;4120128;28;20023;-73
2023/05/17 01:46:31;;;;;;;6.38;3.05;;;7.30;99.90;;;6.60;100.00;102247.56;4132636;28;20125;-73
2023/05/17 01:48:48;;;;;;;8.18;3.22;;;7.30;99.90;;;6.59;100.00;102233.63;4134491;28;20026;-73
2023/05/17 01:50:53;;;;;;;10.80;3.30;;;7.30;99.90;;;6.60;100.00;102250.19;4123594;28;20125;-73
2023/05/17 01:53:36;;;;;;;7.75;3.30;;;7.30;99.90;;;6.60;100.00;102248.38;4111688;28;20027;-72
2023/05/17 01:56:04;;;;;;;11.27;3.22;;;7.30;99.90;;;6.55;100.00;102245.22;4121983;28;20069;-73
2023/05/17 01:58:08;;;;;;;6.32;3.13;;;7.30;99.90;;;6.57;100.00;102245.94;4118536;28;20074;-72
2023/05/17 02:00:10;;;;;;;9.98;3.08;;;7.30;99.90;;;6.52;100.00;102240.16;4134717;28;20031;-72
2023/05/17 02:02:12;;;;;;;9.90;3.15;;;7.30;99.90;;;6.52;100.00;102248.03;4118791;28;20019;-72
2023/05/17 02:04:13;;;;;;;7.97;3.50;;;7.20;99.90;;;6.54;100.00;102254.00;4134839;28;20030;-72
2023/05/17 02:06:15;;;;;;;5.28;3.05;;;7.20;99.90;;;6.49;100.00;102237.72;4119847;28;20027;-72
2023/05/17 02:08:15;;;;;;;8.05;3.97;;;7.20;99.90;;;6.49;100.00;102245.59;4134748;28;20090;-72
2023/05/17 02:10:16;;;;;;;12.02;3.45;;;7.20;99.90;;;6.51;100.00;102245.50;4118612;28;20027;-72
2023/05/17 02:12:17;;;;;;;10.55;4.28;;;7.20;99.90;;;6.50;100.00;102244.66;4118537;28;20658;-72
2023/05/17 02:14:18;;;;;;;11.10;3.38;;;7.20;99.90;;;6.49;100.00;102248.22;4134665;28;20026;-73
2023/05/17 02:16:19;;;;;;;6.03;3.28;;;7.20;99.90;;;6.52;100.00;102248.03;4118491;28;20057;-72
2023/05/17 02:18:20;;;;;;;10.95;3.95;;;7.20;99.90;;;6.52;100.00;102248.03;4119447;28;20077;-73
2023/05/17 02:20:21;;;;;;;6.55;3.63;;;7.20;99.90;;;6.49;100.00;102245.59;4120494;28;20030;-73
2023/05/17 02:22:22;;;;;;;14.02;4.43;;;7.20;99.90;;;6.50;100.00;102234.19;4118655;28;20027;-72
2023/05/17 02:24:23;;;;;;;11.07;4.38;;;7.20;99.90;;;6.51;100.00;102235.84;4119796;28;20479;-72
2023/05/17 02:26:24;;;;;;;7.75;4.10;;;7.20;99.90;;;6.53;100.00;102239.22;4134817;28;20082;-72
2023/05/17 02:28:26;;;;;;;13.93;3.38;;;7.20;99.90;;;6.55;100.00;102242.59;4118416;28;20082;-72
2023/05/17 02:30:27;;;;;;;9.43;4.00;;;7.20;99.90;;;6.57;100.00;102245.13;4134610;28;20084;-72
2023/05/17 02:32:28;;;;;;;7.95;3.30;;;7.20;99.90;;;6.56;100.00;102240.81;4119627;28;20450;-72
2023/05/17 02:34:29;;;;;;;6.93;3.92;;;7.20;99.90;;;6.51;100.00;102241.09;4134607;28;20027;-72
2023/05/17 02:36:30;;;;;;;6.07;3.28;;;7.20;99.90;;;6.46;100.00;102242.31;4102554;28;20042;-72
2023/05/17 02:38:31;;;;;;;6.95;3.00;;;7.20;99.90;;;6.45;100.00;102241.44;4134245;28;20034;-72
2023/05/17 02:40:32;;;;;;;10.43;3.67;;;7.20;99.90;;;6.44;100.00;102255.53;4119774;28;20023;-72
2023/05/17 02:42:33;;;;;;;5.05;3.05;;;7.10;99.90;;;6.43;100.00;102250.34;4118328;28;20015;-72
2023/05/17 02:44:33;;;;;;;8.13;3.22;;;7.10;99.90;;;6.40;100.00;102253.16;4134406;28;20037;-73
2023/05/17 02:46:34;;;;;;;9.10;3.42;;;7.10;99.90;;;6.38;100.00;102255.88;4118928;28;20019;-72
2023/05/17 02:48:35;;;;;;;7.40;3.35;;;7.10;99.90;;;6.37;100.00;102262.06;4121558;28;20038;-73
2023/05/17 02:50:36;;;;;;;8.93;3.05;;;7.10;99.90;;;6.32;100.00;102252.78;4122491;28;20052;-73
2023/05/17 02:52:37;;;;;;;9.95;3.47;;;7.10;99.90;;;6.32;100.00;102256.25;4137734;28;20030;-72
2023/05/17 02:54:38;;;;;;;6.82;3.72;;;7.10;99.90;;;6.32;100.00;102255.41;4122692;28;20038;-73
2023/05/17 02:56:39;;;;;;;8.57;3.25;;;7.00;99.90;;;6.28;100.00;102253.88;4122166;28;20049;-72
2023/05/17 02:58:40;;;;;;;10.73;3.63;;;7.00;99.90;;;6.30;100.00;102263.34;4122487;28;20163;-72
2023/05/17 03:00:45;;;;;;;7.90;3.30;;;7.00;99.90;;;6.26;100.00;102253.16;4121187;28;20038;-72
2023/05/17 03:02:45;;;;;;;;;;;7.00;99.90;;;6.22;100.00;102260.34;4123000;28;20494;-73
2023/05/17 03:04:46;;;;;;;8.10;3.15;;;7.00;99.90;;;6.22;100.00;102259.50;4122516;28;19916;-73
2023/05/17 03:06:49;;;;;;;7.13;2.53;;;6.90;99.90;;;6.21;100.00;102261.28;4122340;28;20046;-72
2023/05/17 03:08:50;;;;;;;7.65;2.72;;;6.90;99.90;;;6.18;100.00;102258.00;4122337;28;20027;-72
2023/05/17 03:10:51;;;;;;;7.78;3.38;;;6.90;99.90;;;6.19;100.00;102263.16;4137317;28;20089;-73
2023/05/17 03:12:52;;;;;;;10.43;3.80;;;6.90;99.90;;;6.20;100.00;102262.22;4121954;28;20038;-72
2023/05/17 03:14:53;;;;;;;6.18;3.88;;;6.90;99.90;;;6.18;100.00;102266.72;4122387;28;20049;-72
2023/05/17 03:16:53;;;;;;;11.40;3.20;;;6.90;99.90;;;6.16;100.00;102257.25;4122479;28;20027;-73
2023/05/17 03:18:54;;;;;;;13.50;3.65;;;6.90;99.90;;;6.14;100.00;102257.34;4122180;28;20034;-72
2023/05/17 03:20:55;;;;;;;7.35;2.90;;;6.80;99.90;;;6.12;100.00;102259.22;4137278;28;20029;-72
2023/05/17 03:22:56;;;;;;;6.18;3.25;;;6.90;99.90;;;6.10;100.00;102263.69;4121008;28;20085;-73
2023/05/17 03:24:57;;;;;;;6.72;3.03;;;6.80;99.90;;;6.02;100.00;102265.91;4121003;28;20031;-72
2023/05/17 03:26:58;;;;;;;4.80;2.55;;;6.80;99.90;;;6.00;100.00;102266.00;4121955;28;20030;-72
2023/05/17 03:28:58;;;;;;;7.28;3.38;;;6.80;99.90;;;6.04;100.00;102266.66;4136977;28;20026;-72
2023/05/17 03:30:59;;;;;;;8.80;3.90;;;6.70;99.90;;;6.07;100.00;102275.19;4120804;28;20030;-72
2023/05/17 03:33:00;;;;;;;8.93;4.57;;;6.80;99.90;;;6.12;100.00;102278.38;4120924;28;20098;-72
2023/05/17 03:35:01;;;;;;;8.60;3.80;;;6.80;99.90;;;6.07;100.00;102266.47;4122016;28;20042;-72
2023/05/17 03:37:02;;;;;;;6.60;4.18;;;6.80;99.90;;;6.08;100.00;102273.41;4137154;28;20022;-72
2023/05/17 03:39:03;;;;;;;9.07;4.70;;;6.80;99.90;;;6.13;100.00;102266.97;4120527;28;20042;-72
2023/05/17 03:41:04;;;;;;;7.38;4.30;;;6.80;99.90;;;6.12;100.00;102264.47;4122212;28;20031;-72
2023/05/17 03:43:06;;;;;;;7.43;3.83;;;6.80;99.90;;;6.08;100.00;102257.72;4136504;28;20030;-72
2023/05/17 03:45:07;;;;;;;8.10;3.40;;;6.80;99.90;;;6.10;100.00;102272.38;4120621;28;20144;-72
2023/05/17 03:47:09;;;;;;;6.85;4.13;;;6.80;99.90;;;6.05;100.00;102257.88;4121836;28;20046;-72
2023/05/17 03:49:10;;;;;;;13.32;3.65;;;6.80;99.90;;;6.05;100.00;102265.75;4121856;28;20053;-72
2023/05/17 03:51:11;;;;;;;11.05;4.20;;;6.70;99.90;;;6.05;100.00;102269.22;4121795;28;20392;-72
2023/05/17 03:53:12;;;;;;;9.00;3.95;;;6.70;99.90;;;6.05;100.00;102278.84;4136630;28;20124;-72
2023/05/17 03:55:13;;;;;;;5.05;3.42;;;6.70;99.90;;;6.04;100.00;102282.38;4121590;28;20563;-72
2023/05/17 03:57:14;;;;;;;10.38;4.03;;;6.70;99.90;;;5.98;100.00;102272.25;4135907;28;20034;-72
2023/05/17 03:59:15;;;;;;;7.18;3.70;;;6.70;99.90;;;5.99;100.00;102280.03;4120122;28;20023;-72
2023/05/17 04:01:16;;;;;;;9.23;4.63;;;6.70;99.90;;;6.00;100.00;102275.66;4128874;28;20045;-72
2023/05/17 04:03:17;;;;;;;8.80;3.90;;;6.70;99.90;;;6.01;100.00;102285.19;4121405;28;20071;-72
2023/05/17 04:05:18;;;;;;;8.50;4.15;;;6.70;99.90;;;5.99;100.00;102279.19;4121449;28;20085;-72
2023/05/17 04:07:19;;;;;;;6.80;3.65;;;6.70;99.90;;;5.96;100.00;102284.63;4120235;28;20065;-72
2023/05/17 04:09:20;;;;;;;9.02;4.50;;;6.70;99.90;;;5.97;100.00;102291.53;4121486;28;20486;-72
2023/05/17 04:11:23;;;;;;;10.43;4.63;;;6.70;99.90;;;5.95;100.00;102283.75;4121209;28;20031;-72
2023/05/17 04:13:23;;;;;;;10.98;4.18;;;6.70;99.90;;;5.92;100.00;102289.19;4136280;28;20548;-72
2023/05/17 04:15:24;;;;;;;10.80;4.10;;;6.70;99.90;;;5.95;100.00;102288.16;4136652;28;20031;-72
2023/05/17 04:17:25;;;;;;;13.10;4.45;;;6.60;99.90;;;5.93;100.00;102285.63;4121285;28;20046;-72
2023/05/17 04:19:26;;;;;;;6.63;4.22;;;6.70;99.90;;;5.91;100.00;102281.41;4121276;28;20027;-72
2023/05/17 04:21:27;;;;;;;10.35;3.90;;;6.60;99.90;;;5.90;100.00;102282.34;4136236;28;20073;-72
2023/05/17 04:23:29;;;;;;;9.95;3.70;;;6.70;99.90;;;5.93;100.00;102283.03;4120165;28;20446;-72
2023/05/17 04:25:30;;;;;;;8.45;3.78;;;6.70;99.90;;;5.94;100.00;102286.47;4136114;28;20034;-72
2023/05/17 04:27:31;;;;;;;10.95;3.88;;;6.70;99.90;;;5.97;100.00;102302.03;4121011;28;20541;-72
2023/05/17 04:29:32;;;;;;;10.07;4.50;;;6.70;99.90;;;5.97;100.00;102299.41;4135838;28;20442;-73
2023/05/17 04:31:33;;;;;;;9.32;4.60;;;6.70;99.90;;;5.95;100.00;102293.38;4121157;28;20023;-73
2023/05/17 04:33:37;;;;;;;12.10;4.47;;;6.70;99.90;;;5.93;100.00;102295.25;4136007;28;20030;-72
2023/05/17 04:35:41;;;;;;;9.20;4.13;;;6.60;99.90;;;5.91;100.00;102292.72;4135962;28;20032;-72
2023/05/17 04:37:42;;;;;;;17.48;4.70;;;6.70;99.90;;;5.93;100.00;102298.72;4136072;28;20054;-72
2023/05/17 04:39:43;;;;;;;8.55;4.00;;;6.60;99.90;;;5.94;100.00;102296.97;4135663;28;20026;-72
2023/05/17 04:41:44;;;;;;;8.02;3.95;;;6.70;99.90;;;5.93;100.00;102305.75;4119346;28;20086;-72
2023/05/17 04:43:45;;;;;;;8.77;3.90;;;6.60;99.90;;;5.96;100.00;102305.56;4119872;28;20117;-72
2023/05/17 04:45:46;;;;;;;9.38;4.22;;;6.60;99.90;;;5.96;100.00;102308.19;4120699;28;20045;-72
2023/05/17 04:47:47;;;;;;;7.93;3.97;;;6.70;99.90;;;5.96;100.00;102306.41;4135766;28;20030;-72
2023/05/17 04:49:47;;;;;;;7.88;3.60;;;6.70;99.90;;;5.96;100.00;102303.78;4119740;28;20588;-72
2023/05/17 04:51:49;;;;;;;7.20;3.67;;;6.70;99.90;;;5.96;100.00;102316.88;4135703;28;20026;-72
2023/05/17 04:53:49;;;;;;;10.68;4.40;;;6.70;99.90;;;6.01;100.00;102319.22;4119678;28;20030;-72
2023/05/17 04:55:51;;;;;;;11.15;3.83;;;6.70;99.90;;;6.04;100.00;102329.53;4135757;28;20033;-72
2023/05/17 04:57:52;;;;;;;7.80;3.80;;;6.70;99.90;;;6.05;100.00;102328.59;4120643;28;20030;-72
2023/05/17 04:59:53;;;;;;;9.50;4.72;;;6.70;99.90;;;6.08;100.00;102336.28;4120702;28;20023;-72
2023/05/17 05:01:54;;;;;;;9.43;4.20;;;6.70;99.90;;;6.06;100.00;102330.31;4120729;28;20394;-72
2023/05/17 05:03:55;;;;;;;11.05;4.00;;;6.80;99.90;;;6.05;100.00;102334.69;4135479;28;20019;-72
2023/05/17 05:05:56;;;;;;;11.23;4.65;;;6.80;99.90;;;6.12;100.00;102340.44;4103194;28;20035;-72
2023/05/17 05:07:57;;;;;;;9.20;4.30;;;6.80;99.90;;;6.15;100.00;102332.41;4120398;28;20023;-72
2023/05/17 05:09:57;;;;;;;8.60;3.90;;;6.80;99.90;;;6.18;100.00;102336.63;4118570;28;20030;-72
2023/05/17 05:11:58;;;;;;;8.88;3.50;;;6.90;99.90;;;6.21;100.00;102331.19;4135323;28;20078;-72
2023/05/17 05:13:59;;;;;;;7.95;4.18;;;6.90;99.90;;;6.27;100.00;102333.47;4119338;28;20031;-72
2023/05/17 05:16:00;;;;;;;10.35;3.95;;;7.00;99.90;;;6.35;100.00;102350.41;4119305;28;20030;-72
2023/05/17 05:18:01;;;;;;;7.70;4.22;;;7.00;99.90;;;6.38;100.00;102341.53;4120233;28;20445;-72
2023/05/17 05:20:02;;;;;;;7.60;3.92;;;7.10;99.90;;;6.42;100.00;102341.25;4120503;28;20027;-72
2023/05/17 05:22:04;;;;;;;9.13;5.10;;;7.10;99.90;;;6.49;100.00;102342.59;4135264;28;20034;-72
2023/05/17 05:24:05;;;;;;;7.38;4.38;;;7.10;99.90;;;6.52;100.00;102337.16;4120208;28;20021;-72
2023/05/17 05:26:06;;;;;;;10.15;4.55;;;7.20;99.90;;;6.59;100.00;102346.34;4119085;28;20536;-72
2023/05/17 05:28:07;;;;;;;7.22;3.78;;;7.30;99.90;;;6.61;100.00;102331.38;4120146;28;20027;-72
2023/05/17 05:30:08;;;;;;;7.85;4.63;;;7.30;99.90;;;6.72;100.00;102345.63;4120390;28;20030;-72
2023/05/17 05:32:09;;;;;;;9.52;3.78;;;7.30;99.90;;;6.76;100.00;102345.34;4120285;28;20442;-72
2023/05/17 05:34:10;;;;;;;11.20;4.95;;;7.40;99.90;;;6.83;100.00;102348.44;4120117;28;20101;-72
2023/05/17 05:36:11;;;;;;;10.60;4.55;;;7.40;99.90;;;6.88;100.00;102351.59;4120330;28;20077;-72
2023/05/17 05:38:12;;;;;;;9.15;4.38;;;7.50;99.90;;;6.92;100.00;102350.50;4120147;28;20038;-72
2023/05/17 05:40:13;;;;;;;9.70;4.68;;;7.60;99.90;;;6.96;100.00;102349.38;4120118;28;20027;-72
2023/05/17 05:42:14;;;;;;;8.68;5.20;;;7.60;99.90;;;7.03;100.00;102353.31;4118527;28;20026;-72
2023/05/17 05:44:15;;;;;;;13.00;5.40;;;7.70;99.90;;;7.13;100.00;102362.31;4135138;28;20033;-72
2023/05/17 05:46:16;;;;;;;10.45;4.55;;;7.70;99.90;;;7.17;100.00;102358.53;4120156;28;20491;-72
2023/05/17 05:48:17;;;;;;;12.18;4.93;;;7.80;99.90;;;7.21;100.00;102355.66;4120089;28;20035;-72
2023/05/17 05:50:18;;;;;;;11.25;4.75;;;7.80;99.90;;;7.26;100.00;102355.34;4134757;28;20033;-72
2023/05/17 05:52:19;;;;;;;11.15;5.32;;;7.90;99.90;;;7.34;100.00;102363.59;4118958;28;20113;-72
2023/05/17 05:54:20;;;;;;;9.23;5.07;;;8.00;99.90;;;7.39;100.00;102358.91;4103073;29;20490;-72
2023/05/17 05:56:23;;;;;;;11.18;5.28;;;8.00;99.90;;;7.42;100.00;102366.59;4119731;28;20038;-72
2023/05/17 05:58:24;;;;;;;13.02;5.18;;;8.10;99.90;;;7.47;100.00;102369.75;4134876;28;20102;-72
2023/05/17 06:00:25;;;;;;;8.35;5.07;;;8.10;99.90;;;7.52;100.00;102369.47;4120050;28;20050;-72
2023/05/17 06:02:26;;;;;;;12.45;5.60;;;8.10;99.90;;;7.52;100.00;102365.09;4118753;28;20459;-72
2023/05/17 06:04:27;;;;;;;10.20;4.82;;;8.20;99.90;;;7.61;100.00;102366.28;4118630;28;20031;-72
2023/05/17 06:06:28;;;;;;;16.50;5.88;;;8.20;99.90;;;7.66;100.00;102375.56;4119819;28;20031;-72
2023/05/17 06:08:29;;;;;;;13.63;5.65;;;8.30;99.90;;;7.69;100.00;102366.63;4119975;28;20509;-72
2023/05/17 06:10:29;;;;;;;13.57;6.28;;;8.30;99.90;;;7.77;100.00;102372.22;4134924;28;20038;-72
2023/05/17 06:12:30;;;;;;;11.55;5.40;;;8.40;99.90;;;7.84;100.00;102377.94;4134527;28;20037;-72
2023/05/17 06:14:31;;;;;;;11.73;6.07;;;8.40;99.90;;;7.82;100.00;102373.59;4119839;28;20034;-72
2023/05/17 06:16:33;;;;;;;7.90;5.43;;;8.50;99.90;;;7.94;100.00;102379.03;4134636;28;20049;-72
2023/05/17 06:18:33;;;;;;;10.90;5.70;;;8.50;99.90;;;7.98;100.00;102377.88;4118157;28;20039;-72
2023/05/17 06:20:34;;;;;;;6.97;4.78;;;8.60;99.90;;;8.03;100.00;102381.91;4119099;28;20098;-72
2023/05/17 06:22:35;;;;;;;13.05;6.13;;;8.70;99.90;;;8.04;100.00;102375.69;4123081;28;20038;-72
2023/05/17 06:24:36;;;;;;;9.82;5.50;;;8.70;99.90;;;8.15;100.00;102383.72;4137794;28;20029;-72
2023/05/17 06:26:37;;;;;;;11.43;5.93;;;8.70;99.90;;;8.19;100.00;102381.75;4122869;28;20406;-71
2023/05/17 06:28:38;;;;;;;13.77;5.90;;;8.80;99.90;;;8.26;100.00;102388.28;4121166;28;20054;-71
2023/05/17 06:30:39;;;;;;;14.25;5.97;;;8.90;99.90;;;8.44;100.00;102388.91;4137970;28;20026;-71
2023/05/17 06:32:40;;;;;;;7.95;5.70;;;9.00;99.90;;;8.68;100.00;102382.84;4137596;28;20028;-71
2023/05/17 06:34:41;;;;;;;11.68;5.80;;;9.10;99.90;;;8.93;100.00;102387.25;4121642;28;20157;-71
2023/05/17 06:36:42;;;;;;;7.80;4.53;;;9.20;99.90;;;9.02;100.00;102385.81;4137848;28;20027;-71
2023/05/17 06:38:43;;;;;;;7.15;4.63;;;9.30;99.90;;;9.10;100.00;102394.84;4121566;28;20398;-71
2023/05/17 06:40:44;;;;;;;10.27;4.82;;;9.40;99.90;;;9.06;100.00;102392.53;4137505;28;20082;-71
2023/05/17 06:42:45;;;;;;;13.77;5.00;;;9.50;99.90;;;9.04;100.00;102394.44;4122420;28;20034;-71
2023/05/17 06:44:46;;;;;;;9.98;5.20;;;9.50;99.90;;;8.98;100.00;102390.44;4122648;28;20047;-71
2023/05/17 06:46:46;;;;;;;13.60;5.53;;;9.60;99.90;;;9.00;100.00;102393.78;4121669;28;20111;-71
2023/05/17 06:48:47;;;;;;;11.98;6.25;;;9.60;99.90;;;9.04;100.00;102392.63;4121395;28;20035;-72
2023/05/17 06:50:48;;;;;;;9.68;4.88;;;9.70;99.90;;;9.12;100.00;102397.34;4122792;28;20053;-72
2023/05/17 06:52:49;;;;;;;7.90;4.70;;;9.70;99.90;;;9.16;100.00;102399.69;4122339;28;20399;-72
2023/05/17 06:54:50;;;;;;;13.15;5.40;;;9.80;99.90;;;9.19;100.00;102388.09;4122615;28;20042;-72
2023/05/17 06:56:51;;;;;;;9.85;4.70;;;9.80;99.90;;;9.31;100.00;102397.78;4137092;28;20505;-72
2023/05/17 06:58:51;;;;;;;8.13;5.30;;;9.90;99.90;;;9.40;100.00;102399.75;4122554;28;20031;-71
2023/05/17 07:00:52;;;;;;;10.88;5.28;;;10.00;99.90;;;9.50;100.00;102397.34;4122494;28;20073;-71
2023/05/17 07:02:53;;;;;;;9.85;4.18;;;10.10;99.90;;;9.57;100.00;102393.28;4120552;28;20107;-71
2023/05/17 07:04:55;;;;;;;9.02;4.60;;;10.20;99.90;;;9.65;100.00;102391.78;4104107;28;20024;-71
2023/05/17 07:06:56;;;;;;;10.27;4.47;;;10.30;99.90;;;9.77;100.00;102398.81;4120634;28;20553;-71
2023/05/17 07:08:57;;;;;;;8.85;4.55;;;10.40;99.90;;;9.84;100.00;102394.78;4136633;28;20038;-73
2023/05/17 07:10:58;;;;;;;10.93;4.00;;;10.50;99.90;;;9.97;100.00;102394.75;4120643;28;20022;-74
2023/05/17 07:12:59;;;;;;;11.88;4.63;;;10.50;99.90;;;10.04;100.00;102388.06;4121471;28;20050;-72
2023/05/17 07:15:00;;;;;;;9.00;4.25;;;10.70;99.90;;;10.19;100.00;102401.94;4136680;28;20038;-72
2023/05/17 07:17:01;;;;;;;6.97;3.10;;;10.80;99.90;;;10.31;100.00;102395.75;4120613;28;20027;-73
2023/05/17 07:19:02;;;;;;;9.93;4.20;;;10.90;99.90;;;10.38;100.00;102395.22;4121410;28;20166;-72
2023/05/17 07:21:03;;;;;;;8.10;3.83;;;11.00;99.90;;;10.46;100.00;102395.47;4121627;28;20027;-72
2023/05/17 07:23:04;;;;;;;7.18;4.22;;;11.10;99.90;;;10.53;100.00;102399.34;4121431;28;20054;-73
2023/05/17 07:25:06;;;;;;;13.27;4.22;;;11.10;99.90;;;10.54;100.00;102392.28;4121929;28;20027;-73
2023/05/17 07:27:06;;;;;;;7.32;4.13;;;11.20;99.90;;;10.63;100.00;102386.28;4136110;28;20085;-71
2023/05/17 07:29:07;;;;;;;9.52;3.80;;;11.30;99.90;;;10.77;100.00;102394.00;4120137;28;20035;-73
2023/05/17 07:31:08;;;;;;;8.98;3.88;;;11.40;99.90;;;10.86;100.00;102387.16;4121838;28;20411;-73
2023/05/17 07:33:09;;;;;;;7.30;3.60;;;11.50;99.90;;;10.99;100.00;102387.91;4135415;28;20034;-72
2023/05/17 07:35:10;;;;;;;8.00;3.38;;;11.50;99.90;;;11.08;100.00;102397.75;4121312;28;20039;-71
2023/05/17 07:37:11;;;;;;;7.28;3.38;;;11.60;99.90;;;11.15;100.00;102383.13;4120048;28;20037;-71
2023/05/17 07:39:12;;;;;;;7.88;3.38;;;11.70;99.90;;;11.26;100.00;102387.56;4120108;28;20031;-72
2023/05/17 07:41:15;;;;;;;7.70;3.28;;;11.80;99.90;;;11.38;100.00;102382.13;4119887;28;20525;-72
2023/05/17 07:43:16;;;;;;;7.90;3.43;;;11.90;99.90;;;11.48;100.00;102383.09;4119766;28;20023;-72
2023/05/17 07:45:18;;;;;;;6.63;2.97;;;12.10;99.90;;;11.62;100.00;102382.00;4120981;28;20058;-72
2023/05/17 07:47:19;;;;;;;7.95;3.13;;;12.20;99.90;;;11.72;100.00;102385.63;4120373;28;20023;-72
2023/05/17 07:49:22;;;;;;;9.35;3.08;;;12.30;99.90;;;11.82;100.00;102378.63;4121030;28;20030;-72
2023/05/17 07:51:23;;;;;;;6.90;2.90;;;12.40;99.90;;;11.94;100.00;102382.94;4136498;28;20484;-72
2023/05/17 07:53:24;;;;;;;10.00;3.15;;;12.50;99.90;;;12.08;100.00;102384.44;4121057;28;20058;-72
2023/05/17 07:55:25;;;;;;;5.55;2.92;;;12.60;99.90;;;12.23;100.00;102387.63;4135875;28;20037;-72
2023/05/17 07:57:26;;;;;;;6.18;2.97;;;12.70;99.90;;;12.37;100.00;102387.31;4119693;28;20023;-72
2023/05/17 07:59:27;;;;;;;4.18;2.10;;;12.90;99.90;;;12.53;100.00;102383.28;4120855;28;20037;-72
2023/05/17 08:01:28;;;;;;;8.75;3.28;;;13.00;99.90;;;12.67;100.00;102382.09;4121355;28;20022;-72
2023/05/17 08:03:29;;;;;;;6.90;2.90;;;13.20;99.90;;;12.78;100.00;102384.69;4121034;28;20486;-72
2023/05/17 08:05:30;;;;;;;6.28;2.55;;;13.30;99.90;;;12.88;100.00;102377.63;4120799;28;20019;-71
2023/05/17 08:07:31;;;;;;;7.03;3.05;;;13.40;99.90;;;13.01;100.00;102378.28;4136084;28;20057;-72
2023/05/17 08:09:32;;;;;;;14.73;3.67;;;13.50;99.90;;;13.10;100.00;102372.22;4119812;28;20027;-72
2023/05/17 08:11:33;;;;;;;6.63;2.42;;;13.60;99.90;;;13.23;100.00;102375.47;4135397;28;20034;-71
2023/05/17 08:13:34;;;;;;;8.77;3.83;;;13.80;99.90;;;13.34;100.00;102376.34;4119789;28;20046;-71
2023/05/17 08:15:35;;;;;;;8.18;2.97;;;13.90;99.90;;;13.43;100.00;102376.38;4120856;28;20027;-72
2023/05/17 08:17:36;;;;;;;11.13;3.05;;;13.90;99.90;;;13.54;100.00;102370.97;4120733;28;20035;-72
2023/05/17 08:19:37;;;;;;;7.65;3.20;;;14.10;99.90;;;13.73;100.00;102371.03;4121152;28;20550;-72
2023/05/17 08:21:40;;;;;;;7.53;3.50;;;14.20;99.90;;;13.81;100.00;102373.81;4121362;28;20101;-72
2023/05/17 08:23:41;;;;;;;8.00;2.90;;;14.30;99.90;;;13.94;100.00;102365.59;4136296;28;20026;-72
2023/05/17 08:25:41;;;;;;;5.85;2.60;;;14.40;99.90;;;14.00;100.00;102369.53;4136091;28;20029;-73
2023/05/17 08:27:43;;;;;;;4.97;2.75;;;14.50;99.90;;;14.16;100.00;102365.31;4119649;28;20023;-72
2023/05/17 08:29:43;;;;;;;7.80;4.03;;;14.60;99.90;;;14.29;100.00;102363.22;4121310;28;20109;-72
2023/05/17 08:31:44;;;;;;;5.85;2.45;;;14.70;99.90;;;14.48;100.00;102366.88;4136202;28;20088;-72
2023/05/17 08:33:45;;;;;;;7.80;3.90;;;14.90;99.90;;;14.55;100.00;102365.31;4121046;28;20037;-72
2023/05/17 08:35:47;;;;;;;11.52;6.68;;;15.00;99.90;;;14.60;99.49;102365.75;4119610;28;20479;-72
2023/05/17 08:37:48;;;;;;;12.45;4.80;;;15.10;99.90;;;14.66;97.54;102363.38;4120739;28;20561;-72